EAGO2: Mountain Fork Riv, Eagletown,

Data processed at Sat Mar 10 2018 23:38


All information presented herein is the property of the government of the United States of America and may be revised or deleted at any time without prior notice.
Dissemination of this information without the expressed written consent of the Public Affairs Office, Tulsa District U.S. Army Corps of Engineers is strictly prohibited.
These data are gathered electronically and, as presented, have not undergone any form of quality control. These data are not guaranteed to be valid or correct.
Go to home page.
Go to station list.

Upstream stations:

Downstream station:
Previous Day
Next Day
Current Day
    
SHEF ID:       EAGO2     Mountain Fork near Eagletown, OK
STATION TYPE:  

               PRECIP     STAGE  RIV-FLOW  BAT-LOAD
                   in        ft       cfs      volt
              Ccp-Rev   Ccp-Rev   Ccp-Rev   Ccp-Rev
(US/Central)
03/08 00:00      ----      6.76      5311     13.05
03/08 01:00      ----      6.09      4454     12.97
03/08 02:00      ----      5.69      3972     12.97
03/08 03:00      ----      5.47      3717     12.97
03/08 04:00      ----      5.39      3626     12.97
03/08 05:00      ----      5.30      3524     12.89
03/08 06:00      ----      5.27      3491     12.89
03/08 07:00      ----      5.44      3683     12.89
03/08 08:00      ----      6.27      4679     12.89
03/08 09:00      ----      6.94      5552     12.97
03/08 10:00      ----      7.22      5928     13.05
03/08 11:00      ----      7.27      5994     13.29
03/08 12:00      ----      6.73      5272     14.08
03/08 13:00      ----      6.10      4467     13.92
03/08 14:00      ----      5.70      3984     13.84
03/08 15:00      ----      5.49      3740     13.68
03/08 16:00      ----      5.39      3626     13.68
03/08 17:00      ----      5.36      3592     13.68
03/08 18:00      ----      5.34      3569     13.44
03/08 19:00      ----      5.29      3513     13.21
03/08 20:00      ----      5.28      3502     13.21
03/08 21:00      ----      5.26      3479     13.13
03/08 22:00      ----      5.19      3402     13.13
03/08 23:00      ----      5.16      3369     13.05